Flight Track Log - Related Links

Times and Time Zones

All times are in EDT time to prevent confusion due to time zone crossing. See the BJS542 flight status page for this flight to view local times or setup timezone preferences in your user account.

Time Position Orientation Groundspeed Altitude Reporting Facility
EDT Latitude Longitude Course Direction KTS MPH feet Rate Location/Type
Fri 03:56:34 PM 39.2833 -76.3667 142° Southeast 209 241 2,000  Level Potomac TRACON
Fri 03:57:37 PM 39.2406 -76.3231 142° Southeast 222 255 4,400 1,983 Climbing Washington Center
Fri 03:58:35 PM 39.1800 -76.3253 182° South 205 236 6,000 2,118 Climbing Washington Center
Fri 03:59:36 PM 39.1153 -76.3325 185° South 217 250 8,600 3,273 Climbing Washington Center
Fri 04:00:36 PM 39.1011 -76.2469 102° East 190 219 12,600 3,769 Climbing Washington Center
Fri 04:01:37 PM 39.1331 -76.1375 69° East 217 250 16,200 3,421 Climbing Washington Center
Fri 04:02:37 PM 39.1586 -76.0225 74° East 280 322 19,500 3,153 Climbing Washington Center
Fri 04:03:35 PM 39.1881 -75.9022 72° East 317 365 22,400 2,797 Climbing Washington Center
Fri 04:04:35 PM 39.2528 -75.8033 50° Northeast 342 394 25,000 2,083 Climbing Washington Center
Fri 04:05:36 PM 39.3281 -75.7042 46° Northeast 364 419 26,600 992 Climbing Washington Center
Fri 04:06:36 PM 39.4114 -75.5997 44° Northeast 392 451 27,000 119 Climbing Washington Center
Fri 04:08:57 PM 39.6167 -75.3361 45° Northeast 431 496 27,000  Level New York Center
Fri 04:09:58 PM 39.7003 -75.2175 47° Northeast 437 503 27,000  Level New York Center
Fri 04:10:59 PM 39.7842 -75.0958 48° Northeast 442 509 27,000  Level New York Center
Fri 04:11:57 PM 39.8653 -74.9819 47° Northeast 447 514 27,000  Level New York Center
Fri 04:12:59 PM 39.9467 -74.8647 48° Northeast 442 509 27,000  Level New York Center
Fri 04:13:57 PM 40.0256 -74.7475 49° Northeast 436 502 27,000  Level New York Center
Fri 04:14:57 PM 40.0764 -74.6039 65° Northeast 430 495 27,000  Level New York Center
Fri 04:16:44 PM 40.1689 -74.3489 65° Northeast 435 501 27,000  Level Boston Center
Fri 04:17:44 PM 40.2233 -74.2067 63° Northeast 435 501 27,000  Level Boston Center
Fri 04:18:44 PM 40.2756 -74.0639 64° Northeast 435 501 27,000  Level Boston Center
Fri 04:19:44 PM 40.3317 -73.9292 61° Northeast 430 495 27,000  Level Boston Center
Fri 04:20:44 PM 40.3833 -73.7886 64° Northeast 425 489 27,000  Level Boston Center
Fri 04:21:44 PM 40.4350 -73.6450 65° Northeast 425 489 27,000 -400 Level Boston Center
Fri 04:22:44 PM 40.4844 -73.5042 65° Northeast 425 489 26,200 -1,200 Descending Boston Center
Fri 04:23:44 PM 40.5378 -73.3686 63° Northeast 419 482 24,600 -1,600 Descending Boston Center
Fri 04:24:44 PM 40.5844 -73.2325 66° East 419 482 23,000 -1,600 Descending Boston Center
Fri 04:25:44 PM 40.6333 -73.0992 64° Northeast 408 470 21,400 -1,650 Descending Boston Center
Fri 04:26:44 PM 40.6819 -72.9711 63° Northeast 395 455 19,700 -1,600 Descending Boston Center
Fri 04:27:44 PM 40.7261 -72.8508 64° Northeast 378 435 18,200 -1,350 Descending Boston Center
Fri 04:28:44 PM 40.7786 -72.7114 64° Northeast 378 435 17,000 -600 Descending Boston Center
Fri 04:29:44 PM 40.8186 -72.5856 67° East 378 435 17,000  Level Boston Center
Fri 04:30:44 PM 40.8625 -72.4675 64° Northeast 371 427 17,000 -52 Level Boston Center
Fri 04:31:39 PM 40.9000 -72.3797 61° Northeast 362 417 16,900 -350 Descending Boston Center
Fri 04:32:27 PM 40.9414 -72.2614 65° Northeast 366 421 16,400 -738 Descending Boston Center
Fri 04:32:44 PM 40.9497 -72.2258 73° East 359 413 16,100 -1,881 Descending Boston Center
Fri 04:33:34 PM 40.9869 -72.1294 63° Northeast 366 421 14,300 -2,057 Descending Boston Center
Fri 04:34:29 PM 41.0219 -72.0192 67° East 348 400 12,500 -1,714 Descending Boston Center
Fri 04:34:44 PM 41.0281 -71.9861 76° East 359 413 12,300 -1,522 Descending Boston Center
Fri 04:35:36 PM 41.0592 -71.9144 60° Northeast 292 336 10,800 -1,752 Descending Boston Center
Fri 04:36:37 PM 41.1086 -71.8342 51° Northeast 266 306 9,000 -1,736 Descending Boston Center
Fri 04:37:37 PM 41.1522 -71.7647 50° Northeast 251 289 7,300 -1,559 Descending Boston Center
Fri 04:38:44 PM 41.1956 -71.6925 51° Northeast 246 283 5,700 -1,131 Descending Boston Center
Fri 04:39:39 PM 41.2367 -71.6258 51° Northeast 244 281 5,000 -300 Descending Boston Center
Fri 04:40:44 PM 41.2839 -71.5533 49° Northeast 246 283 5,100  Climbing Boston Center
Fri 04:41:35 PM 41.3314 -71.5003 40° Northeast 259 298 5,000 -250 Descending Boston Center
Fri 04:42:44 PM 41.4106 -71.4964 North 254 292 4,600 -1,087 Descending Boston Center
Fri 04:43:42 PM 41.4858 -71.4981 359° North 254 292 2,700 -1,250 Descending Boston Center
Fri 04:44:44 PM 41.5400 -71.5028 356° North 230 265 2,100 -295 Descending Boston Center
Fri 04:45:44 PM 41.5942 -71.4992 North 185 213 2,100 -189 Level Boston Center
Fri 04:46:51 PM 41.6378 -71.4928 North 145 167 1,700 -422 Descending Boston Center
Fri 04:47:52 PM 41.6711 -71.4731 24° Northeast 135 155 1,200 -590 Descending Boston Center
Fri 04:48:53 PM 41.7000 -71.4475 33° Northeast 121 139 500 -689 Descending Boston Center
Fri 04:50:00 PM 41.7167 -71.4167 North  Level FlightAware Approximate
Fri 04:57:00 PM 41.7240 -71.4282 North  Level Estimated
Fri 04:58:00 PM 41.7240 -71.4282 North  Level Estimated
Fri 04:59:00 PM 41.7240 -71.4282 North  Level Estimated

Login

Don't have an account? Register now (free) for customized features, flight alerts, and more!